createdAt,value
2023-03-06T00:00:07.693Z,40.3
2023-03-06T00:05:08.352Z,46.1
2023-03-06T00:10:06.510Z,48.4
2023-03-06T00:15:07.026Z,35.3
2023-03-06T00:20:06.352Z,44.4
2023-03-06T00:25:06.548Z,54.3
2023-03-06T00:30:06.875Z,40.7
2023-03-06T00:35:06.215Z,42
2023-03-06T00:40:06.660Z,42.9
2023-03-06T00:45:07.019Z,43.9
2023-03-06T00:50:06.368Z,38.9
2023-03-06T00:55:06.840Z,51.1
2023-03-06T01:00:06.196Z,46.4
2023-03-06T01:05:06.094Z,45.8
2023-03-06T01:10:06.405Z,25.9
2023-03-06T01:15:06.725Z,34.2
2023-03-06T01:20:07.069Z,33.9
2023-03-06T01:25:06.360Z,27.2
2023-03-06T01:30:06.719Z,23.4
2023-03-06T01:35:06.954Z,33.7
2023-03-06T01:40:06.427Z,42.2
2023-03-06T01:45:06.295Z,38.4
2023-03-06T01:50:06.963Z,27.4
2023-03-06T01:55:06.130Z,37.8
2023-03-06T02:00:06.655Z,30.7
2023-03-06T02:05:06.770Z,30.2
2023-03-06T02:10:06.135Z,31.5
2023-03-06T02:15:06.464Z,33.2
2023-03-06T02:20:06.689Z,34.7
2023-03-06T02:25:06.313Z,28.1
2023-03-06T02:30:06.247Z,35.2
2023-03-06T02:35:06.411Z,34.3
2023-03-06T02:40:06.892Z,52.1
2023-03-06T02:45:06.113Z,31.7
2023-03-06T02:50:06.129Z,37
2023-03-06T02:55:06.361Z,36.7
2023-03-06T03:00:06.917Z,35.7
2023-03-06T03:05:06.872Z,32.7
2023-03-06T03:10:06.224Z,38.9
2023-03-06T03:15:06.628Z,27.7
2023-03-06T03:20:07.050Z,35.6
2023-03-06T03:25:06.361Z,45.5
2023-03-06T03:30:06.570Z,29.7
2023-03-06T03:35:06.952Z,28.6
2023-03-06T03:40:06.394Z,28.6
2023-03-06T03:45:06.687Z,48.6
2023-03-06T03:50:06.115Z,46.2
2023-03-06T03:55:06.441Z,41.2
2023-03-06T04:00:06.878Z,45
2023-03-06T04:05:06.940Z,43.3
2023-03-06T04:10:06.439Z,53.3
2023-03-06T04:15:06.656Z,59.2
2023-03-06T04:20:06.990Z,41.9
2023-03-06T04:25:06.295Z,51.8
2023-03-06T04:30:06.635Z,51.6
2023-03-06T04:35:06.946Z,45.7
2023-03-06T04:40:06.337Z,40
2023-03-06T04:45:06.716Z,40.9
2023-03-06T04:50:06.117Z,31.7
2023-03-06T04:55:06.462Z,45.8
2023-03-06T05:00:06.940Z,33.3
2023-03-06T05:05:06.140Z,48.6
2023-03-06T05:10:06.711Z,48.9
2023-03-06T05:15:07.040Z,29.8
2023-03-06T05:20:06.414Z,30.1
2023-03-06T05:25:06.732Z,35.8
2023-03-06T05:30:07.119Z,37.2
2023-03-06T05:35:06.335Z,35.4
2023-03-06T05:40:06.720Z,27.7
2023-03-06T05:45:06.950Z,22.4
2023-03-06T05:50:06.243Z,51.5
2023-03-06T05:55:06.553Z,44.1
2023-03-06T06:00:07.013Z,48.5
2023-03-06T06:05:06.115Z,59.3
2023-03-06T06:10:06.610Z,68.4
2023-03-06T06:15:06.935Z,76.8
2023-03-06T06:20:06.302Z,98.4
2023-03-06T06:25:06.832Z,41.7
2023-03-06T06:30:07.111Z,71.3
2023-03-06T06:35:06.536Z,26.7
2023-03-06T06:40:06.931Z,46
2023-03-06T06:45:06.233Z,34.1
2023-03-06T06:50:06.525Z,35.2
2023-03-06T06:55:06.851Z,30.7
2023-03-06T07:00:06.237Z,33.5
2023-03-06T07:05:06.307Z,34.5
2023-03-06T07:10:06.816Z,39.1
2023-03-06T07:15:06.204Z,42.3
2023-03-06T07:20:06.503Z,32.9
2023-03-06T07:25:06.863Z,43.2
2023-03-06T07:30:06.211Z,32.2
2023-03-06T07:35:06.543Z,33.6
2023-03-06T07:40:06.937Z,42.7
2023-03-06T07:45:06.373Z,45
2023-03-06T07:50:06.644Z,55.9
2023-03-06T07:55:07.024Z,38.1
2023-03-06T08:00:06.471Z,38.2
2023-03-06T08:05:06.510Z,44.3
2023-03-06T08:10:06.951Z,47.1
2023-03-06T08:15:06.175Z,50.9
2023-03-06T08:20:06.479Z,46.4
2023-03-06T08:25:06.778Z,38.5
2023-03-06T08:30:06.121Z,43.8
2023-03-06T08:35:06.397Z,32.9
2023-03-06T08:40:06.778Z,29.5
2023-03-06T08:45:06.096Z,29
2023-03-06T08:50:06.585Z,21.4
2023-03-06T08:55:06.794Z,18.6
2023-03-06T09:00:06.707Z,19.9
2023-03-06T09:05:06.735Z,27.5
2023-03-06T09:10:07.099Z,25.7
2023-03-06T09:15:06.376Z,25.4
2023-03-06T09:20:06.632Z,41.5
2023-03-06T09:25:06.889Z,31.4
2023-03-06T09:30:06.194Z,27.3
2023-03-06T09:35:06.574Z,32.7
2023-03-06T09:40:06.937Z,33.4
2023-03-06T09:45:06.771Z,34.5
2023-03-06T09:50:06.829Z,32.3
2023-03-06T09:55:06.111Z,30.3
2023-03-06T10:00:06.524Z,33.3
2023-03-06T10:05:06.581Z,33.4
2023-03-06T10:10:06.135Z,32.9
2023-03-06T10:15:07.058Z,40.1
2023-03-06T10:20:06.329Z,43.5
2023-03-06T10:25:07.056Z,33.3
2023-03-06T10:30:06.658Z,29.6
2023-03-06T10:35:06.375Z,27.3
2023-03-06T10:40:06.428Z,27.1
2023-03-06T10:45:06.417Z,30.2
2023-03-06T10:50:06.561Z,22.6
2023-03-06T10:55:06.973Z,33.3
2023-03-06T11:00:06.477Z,19.1
2023-03-06T11:05:06.521Z,31.7
2023-03-06T11:10:06.952Z,30.1
2023-03-06T11:15:06.368Z,22.1
2023-03-06T11:20:06.823Z,21.8
2023-03-06T11:25:06.109Z,23
2023-03-06T11:30:06.613Z,22.1
2023-03-06T11:35:07.050Z,21.4
2023-03-06T11:40:07.047Z,17.4
2023-03-06T11:45:06.759Z,28.2
2023-03-06T11:50:06.316Z,22.8
2023-03-06T11:55:06.208Z,19.6
2023-03-06T12:00:06.513Z,26.2
2023-03-06T12:05:07.054Z,22.4
2023-03-06T12:10:06.540Z,34.8
2023-03-06T12:15:06.401Z,17.7
2023-03-06T12:20:06.852Z,17.2
2023-03-06T12:25:06.317Z,15.1
2023-03-06T12:30:06.110Z,27.1
2023-03-06T12:35:06.221Z,18.1
2023-03-06T12:40:06.531Z,10.6
2023-03-06T12:45:06.746Z,11.4
2023-03-06T12:50:06.157Z,14.5
2023-03-06T12:55:06.660Z,16.9
2023-03-06T13:00:06.445Z,20.9
2023-03-06T13:05:06.803Z,12.2
2023-03-06T13:10:06.569Z,14.5
2023-03-06T13:15:06.376Z,11.9
2023-03-06T13:20:06.687Z,13.8
2023-03-06T13:25:06.960Z,10.6
2023-03-06T13:30:06.529Z,11.9
2023-03-06T13:35:06.936Z,10.9
2023-03-06T13:40:06.942Z,9
2023-03-06T13:45:06.162Z,10.8
2023-03-06T13:50:06.514Z,9.3
2023-03-06T13:55:06.372Z,9.2
2023-03-06T14:00:06.558Z,10.1
2023-03-06T14:05:06.943Z,9.5
2023-03-06T14:10:07.057Z,18.2
2023-03-06T14:15:06.329Z,10.9
2023-03-06T14:20:06.168Z,11.3
2023-03-06T14:25:06.706Z,16.1
2023-03-06T14:30:07.088Z,11.2
2023-03-06T14:35:06.490Z,13
2023-03-06T14:40:06.129Z,40.1
2023-03-06T14:45:06.646Z,42.6
2023-03-06T14:50:07.055Z,17.9
2023-03-06T14:55:06.326Z,60.4
2023-03-06T15:00:06.917Z,55.8
2023-03-06T15:05:06.586Z,11.2
2023-03-06T15:10:06.976Z,10
2023-03-06T15:15:06.313Z,13.2
2023-03-06T15:20:06.592Z,8.9
2023-03-06T15:25:06.390Z,9.9
2023-03-06T15:30:06.607Z,13
2023-03-06T15:35:06.885Z,14.9
2023-03-06T15:40:06.974Z,11.6
2023-03-06T15:45:06.196Z,12.2
2023-03-06T15:50:06.607Z,10.5
2023-03-06T15:55:07.024Z,17.4
2023-03-06T16:00:06.416Z,10.2
2023-03-06T16:05:06.400Z,10.2
2023-03-06T16:10:06.730Z,13.8
2023-03-06T16:15:06.858Z,11.3
2023-03-06T16:20:06.891Z,16
2023-03-06T16:25:06.226Z,13.5
2023-03-06T16:30:06.555Z,12.6
2023-03-06T16:35:06.838Z,16
2023-03-06T16:40:06.270Z,16.6
2023-03-06T16:45:06.642Z,22.8
2023-03-06T16:50:06.653Z,23.3
2023-03-06T16:55:06.417Z,20.9
2023-03-06T17:00:06.757Z,40.2
2023-03-06T17:05:06.778Z,18.3
2023-03-06T17:10:06.145Z,16.4
2023-03-06T17:15:06.625Z,30.7
2023-03-06T17:20:06.987Z,27.5
2023-03-06T17:25:06.281Z,20.3
2023-03-06T17:30:06.678Z,24.7
2023-03-06T17:35:07.037Z,19.2
2023-03-06T17:40:06.354Z,20.5
2023-03-06T17:45:06.626Z,25.7
2023-03-06T17:50:06.130Z,18.6
2023-03-06T17:55:06.379Z,25.1
2023-03-06T18:00:06.825Z,18.9
2023-03-06T18:05:06.876Z,10.4
2023-03-06T18:10:06.222Z,25.2
2023-03-06T18:15:06.694Z,18.4
2023-03-06T18:20:06.330Z,23
2023-03-06T18:25:06.712Z,29.7
2023-03-06T18:30:07.116Z,32.8
2023-03-06T18:35:06.424Z,19.3
2023-03-06T18:40:06.898Z,26.4
2023-03-06T18:45:06.143Z,16.2
2023-03-06T18:50:06.573Z,17
2023-03-06T18:55:06.855Z,27.8
2023-03-06T19:00:07.156Z,20.8
2023-03-06T19:05:06.290Z,23.4
2023-03-06T19:10:06.191Z,22.7
2023-03-06T19:15:06.491Z,18.5
2023-03-06T19:20:06.790Z,20.4
2023-03-06T19:25:06.100Z,16.6
2023-03-06T19:30:06.392Z,17.5
2023-03-06T19:35:06.656Z,18.2
2023-03-06T19:40:06.992Z,22.5
2023-03-06T19:45:06.193Z,23.1
2023-03-06T19:50:06.554Z,19.9
2023-03-06T19:55:06.892Z,20.8
2023-03-06T20:00:06.413Z,12.9
2023-03-06T20:05:06.444Z,23.5
2023-03-06T20:10:06.883Z,14.7
2023-03-06T20:15:06.754Z,13.6
2023-03-06T20:20:07.101Z,44.9
2023-03-06T20:25:06.325Z,22.7
2023-03-06T20:30:06.648Z,28.6
2023-03-06T20:35:06.226Z,24.9
2023-03-06T20:40:06.620Z,18.4
2023-03-06T20:45:06.746Z,26.9
2023-03-06T20:50:07.098Z,21
2023-03-06T20:55:06.447Z,21.8
2023-03-06T21:00:06.382Z,18.2
2023-03-06T21:05:06.453Z,19.7
2023-03-06T21:10:06.819Z,18.3
2023-03-06T21:15:06.217Z,18.1
2023-03-06T21:20:06.658Z,16.2
2023-03-06T21:25:06.997Z,13.9
2023-03-06T21:30:06.432Z,23.8
2023-03-06T21:35:06.593Z,13.7
2023-03-06T21:40:06.151Z,11.4
2023-03-06T21:45:06.433Z,26.8
2023-03-06T21:50:06.924Z,29.7
2023-03-06T21:55:06.266Z,36.4
2023-03-06T22:00:06.717Z,34.6
2023-03-06T22:05:06.838Z,40.7
2023-03-06T22:10:06.196Z,45.7
2023-03-06T22:15:06.549Z,33.7
2023-03-06T22:20:06.948Z,39
2023-03-06T22:25:06.313Z,75.2
2023-03-06T22:30:06.652Z,85.4
2023-03-06T22:35:06.979Z,68.2
2023-03-06T22:40:06.350Z,81.2
2023-03-06T22:45:06.654Z,45
2023-03-06T22:50:06.296Z,44.2
2023-03-06T22:55:06.527Z,40.3
2023-03-06T23:00:06.919Z,55.3
2023-03-06T23:05:07.058Z,79
2023-03-06T23:10:06.328Z,103.6
2023-03-06T23:15:06.040Z,64
2023-03-06T23:20:06.468Z,53.3
2023-03-06T23:25:06.652Z,60.8
2023-03-06T23:30:06.132Z,40.3
2023-03-06T23:35:06.510Z,46
2023-03-06T23:40:06.872Z,64.2
2023-03-06T23:45:06.197Z,49.2
2023-03-06T23:50:06.461Z,23.5
2023-03-06T23:55:06.779Z,22.4
